createdAt,value
2019-05-05T00:00:39.199Z,90.70
2019-05-05T00:03:16.519Z,90.70
2019-05-05T00:05:44.957Z,90.70
2019-05-05T00:08:12.632Z,90.60
2019-05-05T00:10:59.250Z,90.70
2019-05-05T00:13:29.382Z,90.60
2019-05-05T00:16:15.176Z,90.60
2019-05-05T00:18:42.019Z,90.60
2019-05-05T00:21:08.566Z,90.70
2019-05-05T00:23:35.321Z,90.70
2019-05-05T00:26:01.862Z,90.70
2019-05-05T00:28:28.393Z,90.70
2019-05-05T00:30:55.464Z,90.80
2019-05-05T00:33:22.069Z,90.70
2019-05-05T00:35:48.609Z,90.70
2019-05-05T00:38:15.151Z,90.80
2019-05-05T00:40:41.691Z,90.80
2019-05-05T00:43:08.218Z,90.70
2019-05-05T00:45:36.063Z,90.70
2019-05-05T00:48:07.160Z,90.70
2019-05-05T00:50:34.365Z,90.80
2019-05-05T00:53:00.938Z,90.80
2019-05-05T00:55:27.473Z,90.90
2019-05-05T00:57:54.911Z,90.90
2019-05-05T01:00:38.653Z,90.90
2019-05-05T01:03:05.580Z,90.90
2019-05-05T01:05:37.924Z,91.00
2019-05-05T01:08:06.368Z,91.00
2019-05-05T01:10:35.261Z,91.00
2019-05-05T01:13:02.236Z,91.00
2019-05-05T01:15:28.975Z,91.00
2019-05-05T01:17:55.496Z,91.10
2019-05-05T01:20:22.055Z,91.10
2019-05-05T01:22:48.576Z,91.10
2019-05-05T01:25:15.527Z,91.10
2019-05-05T01:27:42.349Z,91.20
2019-05-05T01:30:15.166Z,91.20
2019-05-05T01:32:44.601Z,91.20
2019-05-05T01:35:11.514Z,91.20
2019-05-05T01:37:38.288Z,91.10
2019-05-05T01:40:28.340Z,91.10
2019-05-05T01:42:56.874Z,91.10
2019-05-05T01:45:24.205Z,91.40
2019-05-05T01:47:50.839Z,91.10
2019-05-05T01:50:21.255Z,91.10
2019-05-05T01:52:45.814Z,91.10
2019-05-05T01:55:14.547Z,91.20
2019-05-05T01:57:41.303Z,91.20
2019-05-05T02:00:08.470Z,91.20
2019-05-05T02:02:35.109Z,91.20
2019-05-05T02:05:04.535Z,91.20
2019-05-05T02:07:31.114Z,91.20
2019-05-05T02:09:57.637Z,91.40
2019-05-05T02:12:24.737Z,91.30
2019-05-05T02:14:51.990Z,91.30
2019-05-05T02:17:18.680Z,91.30
2019-05-05T02:19:45.176Z,91.20
2019-05-05T02:22:11.916Z,91.20
2019-05-05T02:24:38.446Z,91.30
2019-05-05T02:27:05.372Z,91.30
2019-05-05T02:29:32.059Z,91.30
2019-05-05T02:32:17.020Z,91.60
2019-05-05T02:35:02.352Z,91.30
2019-05-05T02:37:28.994Z,91.40
2019-05-05T02:39:58.905Z,91.30
2019-05-05T02:42:25.547Z,91.30
2019-05-05T02:44:54.685Z,91.40
2019-05-05T02:47:45.235Z,91.40
2019-05-05T02:50:11.809Z,91.40
2019-05-05T02:52:39.662Z,91.40
2019-05-05T02:55:07.395Z,91.40
2019-05-05T02:57:34.585Z,91.30
2019-05-05T03:00:04.519Z,91.30
2019-05-05T03:02:35.180Z,91.40
2019-05-05T03:05:04.071Z,91.30
2019-05-05T03:07:34.441Z,91.30
2019-05-05T03:10:03.571Z,91.30
2019-05-05T03:12:34.636Z,91.40
2019-05-05T03:15:04.213Z,91.40
2019-05-05T03:17:30.940Z,91.50
2019-05-05T03:19:57.693Z,91.40
2019-05-05T03:22:24.833Z,91.40
2019-05-05T03:24:51.361Z,91.40
2019-05-05T03:27:17.997Z,91.40
2019-05-05T03:29:45.533Z,91.30
2019-05-05T03:32:15.705Z,91.40
2019-05-05T03:34:40.712Z,91.40
2019-05-05T03:37:07.569Z,91.20
2019-05-05T03:39:34.294Z,91.30
2019-05-05T03:42:10.272Z,91.30
2019-05-05T03:44:45.433Z,91.30
2019-05-05T03:47:13.539Z,91.30
2019-05-05T03:49:40.574Z,91.30
2019-05-05T03:52:07.710Z,91.50
2019-05-05T03:54:34.375Z,91.20
2019-05-05T03:57:07.446Z,91.30
2019-05-05T03:59:36.162Z,91.40
2019-05-05T04:02:11.564Z,91.40
2019-05-05T04:04:40.293Z,91.30
2019-05-05T04:07:06.841Z,91.30
2019-05-05T04:09:34.551Z,91.30
2019-05-05T04:12:01.442Z,91.40
2019-05-05T04:14:28.801Z,91.30
2019-05-05T04:16:55.351Z,91.30
2019-05-05T04:19:34.256Z,91.30
2019-05-05T04:22:01.075Z,91.30
2019-05-05T04:24:27.622Z,91.30
2019-05-05T04:26:54.652Z,91.30
2019-05-05T04:29:21.540Z,91.30
2019-05-05T04:31:48.071Z,91.30
2019-05-05T04:34:14.629Z,91.20
2019-05-05T04:36:41.154Z,91.50
2019-05-05T04:39:08.018Z,91.20
2019-05-05T04:41:34.540Z,91.30
2019-05-05T04:44:01.579Z,91.20
2019-05-05T04:46:28.129Z,91.30
2019-05-05T04:48:56.570Z,91.40
2019-05-05T04:51:47.059Z,91.50
2019-05-05T04:54:16.045Z,91.50
2019-05-05T04:56:44.371Z,91.60
2019-05-05T04:59:11.013Z,91.50
2019-05-05T05:01:37.536Z,91.40
2019-05-05T05:04:18.202Z,91.30
2019-05-05T05:06:46.685Z,91.60
2019-05-05T05:09:14.658Z,91.40
2019-05-05T05:11:41.358Z,91.50
2019-05-05T05:14:07.892Z,91.50
2019-05-05T05:16:35.708Z,91.60
2019-05-05T05:19:04.335Z,91.60
2019-05-05T05:21:30.899Z,91.60
2019-05-05T05:23:57.447Z,91.70
2019-05-05T05:26:24.487Z,91.70
2019-05-05T05:28:51.043Z,91.70
2019-05-05T05:31:17.819Z,91.80
2019-05-05T05:33:44.369Z,91.70
2019-05-05T05:36:10.886Z,91.70
2019-05-05T05:38:37.545Z,91.70
2019-05-05T05:41:13.692Z,91.80
2019-05-05T05:43:45.119Z,91.80
2019-05-05T05:46:13.684Z,91.70
2019-05-05T05:48:45.494Z,91.70
2019-05-05T05:51:14.644Z,91.60
2019-05-05T05:53:41.367Z,91.60
2019-05-05T05:56:07.887Z,91.60
2019-05-05T05:58:34.418Z,91.60
2019-05-05T06:01:00.952Z,91.50
2019-05-05T06:03:27.484Z,91.50
2019-05-05T06:05:54.176Z,91.40
2019-05-05T06:08:20.871Z,91.50
2019-05-05T06:10:47.402Z,91.40
2019-05-05T06:13:15.233Z,91.40
2019-05-05T06:15:44.155Z,91.40
2019-05-05T06:18:10.696Z,91.40
2019-05-05T06:20:37.253Z,91.40
2019-05-05T06:23:04.188Z,91.30
2019-05-05T06:25:30.926Z,91.30
2019-05-05T06:27:57.443Z,91.30
2019-05-05T06:30:24.489Z,91.30
2019-05-05T06:32:51.194Z,91.30
2019-05-05T06:35:17.739Z,91.30
2019-05-05T06:37:54.375Z,91.30
2019-05-05T06:40:26.229Z,91.20
2019-05-05T06:42:55.654Z,91.20
2019-05-05T06:45:29.967Z,91.10
2019-05-05T06:47:56.530Z,91.20
2019-05-05T06:50:24.266Z,91.10
2019-05-05T06:52:51.014Z,90.80
2019-05-05T06:55:17.544Z,90.60
2019-05-05T06:57:44.487Z,90.70
2019-05-05T07:00:13.847Z,90.60
2019-05-05T07:02:40.286Z,90.60
2019-05-05T07:05:07.040Z,90.40
2019-05-05T07:07:34.256Z,90.20
2019-05-05T07:10:03.609Z,90.30
2019-05-05T07:12:29.869Z,90.40
2019-05-05T07:14:56.399Z,90.40
2019-05-05T07:17:24.483Z,90.40
2019-05-05T07:19:51.279Z,90.40
2019-05-05T07:22:18.571Z,90.30
2019-05-05T07:24:45.089Z,90.30
2019-05-05T07:27:13.830Z,90.30
2019-05-05T07:29:40.317Z,90.40
2019-05-05T07:32:06.871Z,90.30
2019-05-05T07:34:47.256Z,90.20
2019-05-05T07:37:14.377Z,90.30
2019-05-05T07:39:40.953Z,90.00
2019-05-05T07:42:07.465Z,89.60
2019-05-05T07:44:34.014Z,89.00
2019-05-05T07:47:00.541Z,88.60
2019-05-05T07:49:27.081Z,87.70
2019-05-05T07:51:54.736Z,87.20
2019-05-05T07:54:23.523Z,87.50
2019-05-05T07:56:50.008Z,88.60
2019-05-05T07:59:16.530Z,89.40
2019-05-05T08:01:46.311Z,87.40
2019-05-05T08:04:13.688Z,86.80
2019-05-05T08:06:40.486Z,87.30
2019-05-05T08:09:07.013Z,87.80
2019-05-05T08:11:34.237Z,88.20
2019-05-05T08:14:01.086Z,88.40
2019-05-05T08:16:33.687Z,88.30
2019-05-05T08:19:03.907Z,88.60
2019-05-05T08:21:30.834Z,88.40
2019-05-05T08:23:57.389Z,88.20
2019-05-05T08:26:33.684Z,87.70
2019-05-05T08:29:04.514Z,87.80
2019-05-05T08:31:49.105Z,87.30
2019-05-05T08:34:16.043Z,87.30
2019-05-05T08:36:44.489Z,85.80
2019-05-05T08:39:11.087Z,84.50
2019-05-05T08:41:37.617Z,84.60
2019-05-05T08:44:04.193Z,84.20
2019-05-05T08:46:30.728Z,83.50
2019-05-05T08:48:57.492Z,81.80
2019-05-05T08:51:24.818Z,80.70
2019-05-05T08:53:51.638Z,80.00
2019-05-05T08:56:18.174Z,78.70
2019-05-05T08:58:44.807Z,77.40
2019-05-05T09:01:11.341Z,77.80
2019-05-05T09:03:37.881Z,77.10
2019-05-05T09:06:04.758Z,76.30
2019-05-05T09:08:31.439Z,76.90
2019-05-05T09:10:58.783Z,77.80
2019-05-05T09:13:25.323Z,79.00
2019-05-05T09:15:54.382Z,79.40
2019-05-05T09:18:21.127Z,79.30
2019-05-05T09:20:47.669Z,80.40
2019-05-05T09:23:14.855Z,78.90
2019-05-05T09:25:58.855Z,78.80
2019-05-05T09:28:34.129Z,78.90
2019-05-05T09:31:00.859Z,77.20
2019-05-05T09:33:27.396Z,75.40
2019-05-05T09:35:54.315Z,75.70
2019-05-05T09:38:21.215Z,72.70
2019-05-05T09:40:47.741Z,72.00
2019-05-05T09:43:14.855Z,71.00
2019-05-05T09:45:43.962Z,69.90
2019-05-05T09:48:10.115Z,69.70
2019-05-05T09:50:36.638Z,68.40
2019-05-05T09:53:04.177Z,68.90
2019-05-05T09:55:31.003Z,68.20
2019-05-05T09:57:57.536Z,71.00
2019-05-05T10:00:24.425Z,70.90
2019-05-05T10:02:51.005Z,67.60
2019-05-05T10:05:17.621Z,67.60
2019-05-05T10:07:44.259Z,67.90
2019-05-05T10:10:11.194Z,66.40
2019-05-05T10:12:37.744Z,65.50
2019-05-05T10:15:07.430Z,65.00
2019-05-05T10:17:34.240Z,65.50
2019-05-05T10:20:00.799Z,63.30
2019-05-05T10:22:27.332Z,62.40
2019-05-05T10:24:57.577Z,62.70
2019-05-05T10:27:24.388Z,63.50
2019-05-05T10:29:51.225Z,66.10
2019-05-05T10:32:17.765Z,64.40
2019-05-05T10:34:46.713Z,63.00
2019-05-05T10:37:14.230Z,64.90
2019-05-05T10:39:48.750Z,64.80
2019-05-05T10:42:15.429Z,65.30
2019-05-05T10:44:42.000Z,63.40
2019-05-05T10:47:08.532Z,65.60
2019-05-05T10:49:35.095Z,65.70
2019-05-05T10:52:03.749Z,64.40
2019-05-05T10:54:43.855Z,63.30
2019-05-05T10:56:58.999Z,64.20
2019-05-05T10:59:25.543Z,62.10
2019-05-05T11:01:53.778Z,63.30
2019-05-05T11:04:20.411Z,63.70
2019-05-05T11:06:46.933Z,64.30
2019-05-05T11:09:14.039Z,64.50
2019-05-05T11:11:40.701Z,64.80
2019-05-05T11:14:07.390Z,65.60
2019-05-05T11:16:34.210Z,66.90
2019-05-05T11:19:00.993Z,66.30
2019-05-05T11:21:27.550Z,66.60
2019-05-05T11:23:54.780Z,67.90
2019-05-05T11:26:21.308Z,67.00
2019-05-05T11:28:47.840Z,62.80
2019-05-05T11:31:16.064Z,58.50
2019-05-05T11:33:45.708Z,60.40
2019-05-05T11:36:34.462Z,59.70
2019-05-05T11:39:00.840Z,58.10
2019-05-05T11:41:27.568Z,61.10
2019-05-05T11:43:54.350Z,59.20
2019-05-05T11:46:20.874Z,59.60
2019-05-05T11:48:47.435Z,61.60
2019-05-05T11:51:15.081Z,61.80
2019-05-05T11:53:41.910Z,62.30
2019-05-05T11:56:08.437Z,62.90
2019-05-05T11:58:35.274Z,64.00
2019-05-05T12:01:03.780Z,63.70
2019-05-05T12:03:30.276Z,64.10
2019-05-05T12:05:58.728Z,61.30
2019-05-05T12:08:25.270Z,58.80
2019-05-05T12:10:57.210Z,58.20
2019-05-05T12:13:23.742Z,57.40
2019-05-05T12:15:53.797Z,59.20
2019-05-05T12:18:20.402Z,53.90
2019-05-05T12:21:00.803Z,54.20
2019-05-05T12:23:27.323Z,56.00
2019-05-05T12:25:59.912Z,56.30
2019-05-05T12:28:28.320Z,56.20
2019-05-05T12:31:03.661Z,56.70
2019-05-05T12:33:30.378Z,58.10
2019-05-05T12:35:56.938Z,57.80
2019-05-05T12:38:24.134Z,56.90
2019-05-05T12:40:50.754Z,55.80
2019-05-05T12:43:17.474Z,58.10
2019-05-05T12:46:04.458Z,59.20
2019-05-05T12:48:43.708Z,58.80
2019-05-05T12:51:10.363Z,58.70
2019-05-05T12:53:36.888Z,59.80
2019-05-05T12:56:04.114Z,60.30
2019-05-05T12:58:30.797Z,61.20
2019-05-05T13:00:59.350Z,60.80
2019-05-05T13:03:26.438Z,61.70
2019-05-05T13:05:54.990Z,62.30
2019-05-05T13:08:23.513Z,62.20
2019-05-05T13:10:53.531Z,61.60
2019-05-05T13:13:21.541Z,61.40
2019-05-05T13:15:50.657Z,59.80
2019-05-05T13:18:17.179Z,60.60
2019-05-05T13:29:54.512Z,59.00
2019-05-05T13:32:21.293Z,58.80
2019-05-05T13:34:47.906Z,59.00
2019-05-05T13:37:14.457Z,60.20
2019-05-05T13:39:40.983Z,61.50
2019-05-05T13:42:07.544Z,61.70
2019-05-05T13:44:52.559Z,62.00
2019-05-05T13:47:19.442Z,62.20
2019-05-05T13:49:45.972Z,60.90
2019-05-05T13:52:13.923Z,61.70
2019-05-05T13:54:40.677Z,61.30
2019-05-05T13:57:07.264Z,62.40
2019-05-05T13:59:34.183Z,60.70
2019-05-05T14:02:00.706Z,59.20
2019-05-05T14:07:15.804Z,58.70
2019-05-05T14:09:44.183Z,55.50
2019-05-05T14:12:10.805Z,56.20
2019-05-05T14:14:37.326Z,56.40
2019-05-05T14:17:04.290Z,56.50
2019-05-05T14:19:30.850Z,57.10
2019-05-05T14:21:57.484Z,56.20
2019-05-05T14:24:28.567Z,57.40
2019-05-05T14:26:55.107Z,57.50
2019-05-05T14:29:35.479Z,58.10
2019-05-05T14:32:02.415Z,59.10
2019-05-05T14:34:30.849Z,59.60
2019-05-05T14:37:11.057Z,60.70
2019-05-05T14:39:36.812Z,60.90
2019-05-05T14:42:04.507Z,62.50
2019-05-05T14:44:31.216Z,63.00
2019-05-05T14:46:57.739Z,62.60
2019-05-05T14:49:24.691Z,62.20
2019-05-05T14:51:51.349Z,62.40
2019-05-05T14:54:17.870Z,62.90
2019-05-05T14:56:44.403Z,63.00
2019-05-05T14:59:10.939Z,63.00
2019-05-05T15:01:37.460Z,63.00
2019-05-05T15:04:04.408Z,61.00
2019-05-05T15:06:34.419Z,61.20
2019-05-05T15:09:18.354Z,60.80
2019-05-05T15:12:03.807Z,60.50
2019-05-05T15:14:30.422Z,58.90
2019-05-05T15:16:56.957Z,58.40
2019-05-05T15:19:23.873Z,60.00
2019-05-05T15:21:50.512Z,58.90
2019-05-05T15:24:17.053Z,58.90
2019-05-05T15:26:51.871Z,57.80
2019-05-05T15:29:12.010Z,56.30
2019-05-05T15:31:38.546Z,58.80
2019-05-05T15:34:05.060Z,57.80
2019-05-05T15:36:33.341Z,57.90
2019-05-05T15:39:00.058Z,58.70
2019-05-05T15:41:26.598Z,59.70
2019-05-05T15:43:54.404Z,59.60
2019-05-05T15:46:21.153Z,59.60
2019-05-05T15:48:48.034Z,59.00
2019-05-05T15:51:14.602Z,60.00
2019-05-05T15:53:41.091Z,60.60
2019-05-05T15:56:07.611Z,59.80
2019-05-05T15:58:34.398Z,61.40
2019-05-05T16:01:01.092Z,59.80
2019-05-05T16:03:29.828Z,60.60
2019-05-05T16:05:56.102Z,60.40
2019-05-05T16:08:22.621Z,61.60
2019-05-05T16:10:49.176Z,60.30
2019-05-05T16:13:15.707Z,60.20
2019-05-05T16:15:42.226Z,62.60
2019-05-05T16:18:19.691Z,61.20
2019-05-05T16:21:01.170Z,62.30
2019-05-05T16:23:47.871Z,62.10
2019-05-05T16:26:14.412Z,63.20
2019-05-05T16:28:41.017Z,63.80
2019-05-05T16:31:07.532Z,63.40
2019-05-05T16:33:34.061Z,63.80
2019-05-05T16:36:00.575Z,64.10
2019-05-05T16:38:27.164Z,62.40
2019-05-05T16:40:53.893Z,60.90
2019-05-05T16:43:20.430Z,60.40
2019-05-05T16:45:47.085Z,60.00
2019-05-05T16:48:13.703Z,59.50
2019-05-05T16:50:43.910Z,59.10
2019-05-05T16:53:14.020Z,59.10
2019-05-05T16:55:40.368Z,59.40
2019-05-05T16:58:07.006Z,59.80
2019-05-05T17:00:34.583Z,60.50
2019-05-05T17:03:01.262Z,60.30
2019-05-05T17:05:27.792Z,59.80
2019-05-05T17:07:55.841Z,59.70
2019-05-05T17:10:24.481Z,59.90
2019-05-05T17:12:51.239Z,59.40
2019-05-05T17:15:35.255Z,59.50
2019-05-05T17:18:09.015Z,60.40
2019-05-05T17:20:51.114Z,60.60
2019-05-05T17:23:18.047Z,60.20
2019-05-05T17:25:44.688Z,60.80
2019-05-05T17:28:11.234Z,60.40
2019-05-05T17:30:37.891Z,60.40
2019-05-05T17:33:04.469Z,61.80
2019-05-05T17:35:33.643Z,60.90
2019-05-05T17:38:07.130Z,60.40
2019-05-05T17:40:36.545Z,60.00
2019-05-05T17:43:04.976Z,60.80
2019-05-05T17:45:50.404Z,60.70
2019-05-05T17:48:18.730Z,59.90
2019-05-05T17:50:45.529Z,59.80
2019-05-05T17:53:14.901Z,59.90
2019-05-05T17:55:41.891Z,58.90
2019-05-05T17:58:08.413Z,60.80
2019-05-05T18:00:36.853Z,60.90
2019-05-05T18:03:04.342Z,61.30
2019-05-05T18:05:51.121Z,61.00
2019-05-05T18:08:34.735Z,63.00
2019-05-05T18:11:03.896Z,62.10
2019-05-05T18:13:35.232Z,61.60
2019-05-05T18:16:01.985Z,61.30
2019-05-05T18:18:28.517Z,60.80
2019-05-05T18:20:55.189Z,61.60
2019-05-05T18:23:23.437Z,61.90
2019-05-05T18:25:50.153Z,61.90
2019-05-05T18:28:20.003Z,61.70
2019-05-05T18:30:45.191Z,62.60
2019-05-05T18:33:13.597Z,62.70
2019-05-05T18:35:40.146Z,63.90
2019-05-05T18:38:06.682Z,63.90
2019-05-05T18:40:34.095Z,63.90
2019-05-05T18:43:04.010Z,64.30
2019-05-05T18:45:30.754Z,64.60
2019-05-05T18:47:57.280Z,65.00
2019-05-05T18:50:24.425Z,65.30
2019-05-05T18:52:51.118Z,65.60
2019-05-05T18:55:17.663Z,66.00
2019-05-05T18:57:44.219Z,66.20
2019-05-05T19:00:13.951Z,66.50
2019-05-05T19:02:53.445Z,66.80
2019-05-05T19:05:39.455Z,67.10
2019-05-05T19:08:16.716Z,67.30
2019-05-05T19:10:43.418Z,67.60
2019-05-05T19:13:10.452Z,68.00
2019-05-05T19:15:37.440Z,68.20
2019-05-05T19:18:06.321Z,68.40
2019-05-05T19:20:37.079Z,68.40
2019-05-05T19:23:05.918Z,68.70
2019-05-05T19:25:32.078Z,69.00
2019-05-05T19:27:58.652Z,69.10
2019-05-05T19:30:25.758Z,69.10
2019-05-05T19:32:54.160Z,69.20
2019-05-05T19:35:20.780Z,69.30
2019-05-05T19:37:47.355Z,69.50
2019-05-05T19:40:14.223Z,69.60
2019-05-05T19:42:40.837Z,69.70
2019-05-05T19:45:07.591Z,69.80
2019-05-05T19:47:34.143Z,70.10
2019-05-05T19:50:02.651Z,70.10
2019-05-05T19:52:29.226Z,70.30
2019-05-05T19:54:55.802Z,70.50
2019-05-05T19:57:22.331Z,70.90
2019-05-05T19:59:48.870Z,71.20
2019-05-05T20:02:15.404Z,71.40
2019-05-05T20:04:44.352Z,71.70
2019-05-05T20:07:10.510Z,71.70
2019-05-05T20:09:37.031Z,71.50
2019-05-05T20:12:04.160Z,71.30
2019-05-05T20:14:30.700Z,71.10
2019-05-05T20:17:03.996Z,71.10
2019-05-05T20:19:31.286Z,71.00
2019-05-05T20:21:57.836Z,71.10
2019-05-05T20:24:24.376Z,71.10
2019-05-05T20:26:50.910Z,71.20
2019-05-05T20:29:17.895Z,71.20
2019-05-05T20:31:44.419Z,71.20
2019-05-05T20:34:24.208Z,71.20
2019-05-05T20:37:07.280Z,71.20
2019-05-05T20:39:34.207Z,71.30
2019-05-05T20:42:00.775Z,71.30
2019-05-05T20:44:27.296Z,71.30
2019-05-05T20:46:53.826Z,71.40
2019-05-05T20:49:20.347Z,71.40
2019-05-05T20:51:46.873Z,71.50
2019-05-05T20:54:14.267Z,71.60
2019-05-05T20:56:40.862Z,71.60
2019-05-05T20:59:07.386Z,71.60
2019-05-05T21:01:34.202Z,71.50
2019-05-05T21:04:00.924Z,71.60
2019-05-05T21:06:27.444Z,71.70
2019-05-05T21:08:53.983Z,71.70
2019-05-05T21:11:20.511Z,71.80
2019-05-05T21:13:47.072Z,71.80
2019-05-05T21:16:14.282Z,71.90
2019-05-05T21:18:41.056Z,72.00
2019-05-05T21:21:09.494Z,72.10
2019-05-05T21:23:37.928Z,72.20
2019-05-05T21:26:06.347Z,72.30
2019-05-05T21:28:33.637Z,72.40
2019-05-05T21:31:00.251Z,72.40
2019-05-05T21:33:26.771Z,72.50
2019-05-05T21:35:55.111Z,72.70
2019-05-05T21:38:21.712Z,72.90
2019-05-05T21:40:48.230Z,73.10
2019-05-05T21:43:15.332Z,73.40
2019-05-05T21:45:44.314Z,73.40
2019-05-05T21:48:10.402Z,73.60
2019-05-05T21:50:38.861Z,73.70
2019-05-05T21:53:08.028Z,73.70
2019-05-05T21:55:43.937Z,73.80
2019-05-05T21:58:10.628Z,73.70
2019-05-05T22:00:49.301Z,73.60
2019-05-05T22:03:18.171Z,74.50
2019-05-05T22:05:44.691Z,73.50
2019-05-05T22:08:11.220Z,74.20
2019-05-05T22:10:37.736Z,73.40
2019-05-05T22:13:04.847Z,73.40
2019-05-05T22:15:33.641Z,74.10
2019-05-05T22:18:00.053Z,73.40
2019-05-05T22:20:28.516Z,73.40
2019-05-05T22:22:55.103Z,73.40
2019-05-05T22:25:21.633Z,73.40
2019-05-05T22:27:48.169Z,73.50
2019-05-05T22:30:14.907Z,74.40
2019-05-05T22:32:41.437Z,73.60
2019-05-05T22:35:09.861Z,73.80
2019-05-05T22:37:36.388Z,73.80
2019-05-05T22:40:03.652Z,73.90
2019-05-05T22:42:30.222Z,74.00
2019-05-05T22:44:56.748Z,74.10
2019-05-05T22:47:23.679Z,74.00
2019-05-05T22:49:50.301Z,74.10
2019-05-05T22:52:16.873Z,74.10
2019-05-05T22:54:44.414Z,74.30
2019-05-05T22:57:11.052Z,74.30
2019-05-05T22:59:37.584Z,74.30
2019-05-05T23:02:04.144Z,74.40
2019-05-05T23:04:34.781Z,74.30
2019-05-05T23:07:03.824Z,74.30
2019-05-05T23:09:30.496Z,74.20
2019-05-05T23:11:57.021Z,74.50
2019-05-05T23:14:29.843Z,74.40
2019-05-05T23:17:14.569Z,74.30
2019-05-05T23:19:47.179Z,74.30
2019-05-05T23:22:34.697Z,74.10
2019-05-05T23:25:12.034Z,74.00
2019-05-05T23:27:48.415Z,74.00
2019-05-05T23:30:17.800Z,74.00
2019-05-05T23:32:45.429Z,74.00
2019-05-05T23:35:14.136Z,74.00
2019-05-05T23:37:40.431Z,74.00
2019-05-05T23:40:07.373Z,74.20
2019-05-05T23:42:33.894Z,73.70
2019-05-05T23:45:00.425Z,74.50
2019-05-05T23:47:26.946Z,74.60
2019-05-05T23:49:53.818Z,75.10
2019-05-05T23:52:20.542Z,75.00
2019-05-05T23:54:47.076Z,74.70
2019-05-05T23:57:13.837Z,74.70
2019-05-05T23:59:40.519Z,74.70
